Time;durP1;ratioP1;P1;durP2;ratioP2;P2;SDS_P1;SDS_P2;PMS_P1;PMS_P2;Temp;Humidity;BMP_temperature;BMP_pressure;BME280_temperature;BME280_humidity;BME280_pressure;Samples;Min_cycle;Max_cycle;Signal;HPM_P1;HPM_P2
2023/10/16 00:02:12;;;;;;;5.45;1.25;;;;;;;;;;4987788;28;20030;-66
2023/10/16 00:04:38;;;;;;;3.88;0.90;;;;;;;;;;4987037;28;20030;-67
2023/10/16 00:07:08;;;;;;;2.40;1.27;;;;;;;;;;4984179;28;20014;-67
2023/10/16 00:09:34;;;;;;;6.68;1.40;;;;;;;;;;4970141;28;20033;-67
2023/10/16 00:11:59;;;;;;;7.68;1.02;;;;;;;;;;4990529;28;20037;-65
2023/10/16 00:14:30;;;;;;;3.28;1.13;;;;;;;;;;4978206;28;20042;-66
2023/10/16 00:16:56;;;;;;;8.13;1.50;;;;;;;;;;4987319;28;20098;-69
2023/10/16 00:19:24;;;;;;;3.78;1.20;;;;;;;;;;4991555;28;20097;-67
2023/10/16 00:21:52;;;;;;;3.37;1.20;;;;;;;;;;4993935;28;20135;-63
2023/10/16 00:24:17;;;;;;;2.88;1.02;;;;;;;;;;4996873;28;20192;-66
2023/10/16 00:26:49;;;;;;;0.80;0.80;;;;;;;;;;4987348;28;20114;-63
2023/10/16 00:29:17;;;;;;;1.98;1.10;;;;;;;;;;4984712;28;20037;-65
2023/10/16 00:31:46;;;;;;;4.18;1.08;;;;;;;;;;4979817;28;20049;-68
2023/10/16 00:34:15;;;;;;;9.88;1.15;;;;;;;;;;4986855;28;20479;-64
2023/10/16 00:36:44;;;;;;;10.25;1.23;;;;;;;;;;4984222;28;20168;-68
2023/10/16 00:39:12;;;;;;;6.82;1.15;;;;;;;;;;4984291;28;20010;-67
2023/10/16 00:41:38;;;;;;;8.17;1.50;;;;;;;;;;4973866;28;20023;-67
2023/10/16 00:44:04;;;;;;;6.15;1.10;;;;;;;;;;4988991;28;20037;-66
2023/10/16 00:46:30;;;;;;;5.60;1.23;;;;;;;;;;4980733;28;20116;-66
2023/10/16 00:48:56;;;;;;;3.33;1.13;;;;;;;;;;4998359;28;20022;-66
2023/10/16 00:51:21;;;;;;;4.35;1.23;;;;;;;;;;4987524;28;20041;-67
2023/10/16 00:53:47;;;;;;;2.92;0.80;;;;;;;;;;5002812;28;20014;-66
2023/10/16 00:56:14;;;;;;;4.63;1.20;;;;;;;;;;4998554;28;20100;-65
2023/10/16 00:58:40;;;;;;;1.42;1.00;;;;;;;;;;4987614;28;20466;-67
2023/10/16 01:01:09;;;;;;;8.32;1.45;;;;;;;;;;4999411;28;20021;-68
2023/10/16 01:03:34;;;;;;;;;;;;;;;;;;4993798;28;20019;-67
2023/10/16 01:06:01;;;;;;;3.20;0.98;;;;;;;;;;4993745;28;19933;-66
2023/10/16 01:08:27;;;;;;;3.33;1.00;;;;;;;;;;4990978;28;20394;-65
2023/10/16 01:10:57;;;;;;;4.00;1.00;;;;;;;;;;5000802;28;20022;-64
2023/10/16 01:13:22;;;;;;;4.20;1.10;;;;;;;;;;4999211;28;20022;-67
2023/10/16 01:15:50;;;;;;;1.95;0.90;;;;;;;;;;4991506;28;20042;-66
2023/10/16 01:18:16;;;;;;;1.65;1.13;;;;;;;;;;4997319;28;20077;-65
2023/10/16 01:20:46;;;;;;;2.22;1.08;;;;;;;;;;4990777;28;20018;-67
2023/10/16 01:23:15;;;;;;;11.20;1.45;;;;;;;;;;4988380;28;20659;-66
2023/10/16 01:25:40;;;;;;;1.95;0.85;;;;;;;;;;4989341;28;20077;-67
2023/10/16 01:28:05;;;;;;;2.70;1.00;;;;;;;;;;4997385;28;20488;-65
2023/10/16 01:30:30;;;;;;;3.88;1.30;;;;;;;;;;4999955;28;20023;-68
2023/10/16 01:32:56;;;;;;;3.85;0.95;;;;;;;;;;5019505;23;20760;-65
2023/10/16 01:35:21;;;;;;;3.72;1.20;;;;;;;;;;5010952;28;20121;-64
2023/10/16 01:37:46;;;;;;;2.60;1.00;;;;;;;;;;5012001;28;20585;-64
2023/10/16 01:40:25;;;;;;;2.92;1.15;;;;;;;;;;5011871;28;20686;-65
2023/10/16 01:42:53;;;;;;;4.03;0.80;;;;;;;;;;5005220;28;20440;-64
2023/10/16 01:45:20;;;;;;;3.45;1.08;;;;;;;;;;5006590;28;20021;-64
2023/10/16 01:47:45;;;;;;;6.57;1.08;;;;;;;;;;5011434;28;20025;-63
2023/10/16 01:50:20;;;;;;;8.20;1.27;;;;;;;;;;5007055;28;20017;-64
2023/10/16 01:52:45;;;;;;;12.55;1.83;;;;;;;;;;4996386;28;20097;-61
2023/10/16 01:55:16;;;;;;;2.67;0.88;;;;;;;;;;5011515;28;20397;-64
2023/10/16 01:57:43;;;;;;;2.30;0.70;;;;;;;;;;5006960;28;20394;-65
2023/10/16 02:00:16;;;;;;;4.28;1.02;;;;;;;;;;5011970;28;20432;-64
2023/10/16 02:02:41;;;;;;;2.15;1.00;;;;;;;;;;5011514;28;20033;-65
2023/10/16 02:05:06;;;;;;;3.58;1.13;;;;;;;;;;5007347;28;20018;-65
2023/10/16 02:07:33;;;;;;;3.33;0.80;;;;;;;;;;5010215;28;20546;-65
2023/10/16 02:09:59;;;;;;;3.88;1.10;;;;;;;;;;5012147;28;20014;-65
2023/10/16 02:12:24;;;;;;;6.63;1.75;;;;;;;;;;5010969;28;21180;-65
2023/10/16 02:14:49;;;;;;;7.00;1.38;;;;;;;;;;5009370;28;20556;-63
2023/10/16 02:17:19;;;;;;;2.92;0.93;;;;;;;;;;5010679;28;20029;-65
2023/10/16 02:19:44;;;;;;;3.42;1.23;;;;;;;;;;5011237;28;20010;-65
2023/10/16 02:22:11;;;;;;;5.57;1.08;;;;;;;;;;5010263;28;20383;-64
2023/10/16 02:24:37;;;;;;;9.27;1.73;;;;;;;;;;5010202;28;20083;-66
2023/10/16 02:27:03;;;;;;;2.67;1.10;;;;;;;;;;5014858;28;20014;-67
2023/10/16 02:29:31;;;;;;;7.18;1.50;;;;;;;;;;5011472;28;20033;-64
2023/10/16 02:31:57;;;;;;;4.60;1.20;;;;;;;;;;5013022;28;20184;-65
2023/10/16 02:34:23;;;;;;;6.80;1.25;;;;;;;;;;5011405;28;20537;-65
2023/10/16 02:36:50;;;;;;;4.78;0.93;;;;;;;;;;5009437;28;20026;-64
2023/10/16 02:39:34;;;;;;;6.78;1.45;;;;;;;;;;5011088;28;20512;-64
2023/10/16 02:42:00;;;;;;;4.68;1.27;;;;;;;;;;5010018;28;20018;-61
2023/10/16 02:44:26;;;;;;;2.28;1.10;;;;;;;;;;5005112;28;20025;-65
2023/10/16 02:46:51;;;;;;;4.05;1.48;;;;;;;;;;5009424;28;20401;-66
2023/10/16 02:49:16;;;;;;;12.50;2.05;;;;;;;;;;5006226;28;20014;-66
2023/10/16 02:51:42;;;;;;;4.07;1.55;;;;;;;;;;5010703;28;20064;-63
2023/10/16 02:54:08;;;;;;;5.85;1.50;;;;;;;;;;5011051;28;20381;-66
2023/10/16 02:56:33;;;;;;;4.28;1.35;;;;;;;;;;5010191;28;20549;-67
2023/10/16 02:59:07;;;;;;;6.25;1.70;;;;;;;;;;5010543;28;20520;-64
2023/10/16 03:01:32;;;;;;;9.27;1.40;;;;;;;;;;5010418;28;20048;-61
2023/10/16 03:03:58;;;;;;;11.63;1.30;;;;;;;;;;5010727;28;20057;-65
2023/10/16 03:06:26;;;;;;;7.00;1.38;;;;;;;;;;5005469;28;20010;-65
2023/10/16 03:08:52;;;;;;;6.47;1.60;;;;;;;;;;5010309;28;20029;-65
2023/10/16 03:11:17;;;;;;;3.45;1.30;;;;;;;;;;5007315;28;20020;-64
2023/10/16 03:13:56;;;;;;;8.02;1.63;;;;;;;;;;5010467;28;20100;-63
2023/10/16 03:16:26;;;;;;;3.50;1.20;;;;;;;;;;5009612;28;20488;-65
2023/10/16 03:18:52;;;;;;;5.10;1.70;;;;;;;;;;5002567;28;20033;-64
2023/10/16 03:23:44;;;;;;;6.90;1.75;;;;;;;;;;5009142;28;20068;-64
2023/10/16 03:26:09;;;;;;;6.20;1.90;;;;;;;;;;4992185;28;20519;-65
2023/10/16 03:28:35;;;;;;;4.50;1.52;;;;;;;;;;5009502;28;20034;-64
2023/10/16 03:31:03;;;;;;;2.53;1.35;;;;;;;;;;5007088;28;20044;-65
2023/10/16 03:33:28;;;;;;;4.55;1.40;;;;;;;;;;5008941;28;20026;-66
2023/10/16 03:35:54;;;;;;;8.07;1.80;;;;;;;;;;5009503;28;20014;-65
2023/10/16 03:38:26;;;;;;;5.90;1.50;;;;;;;;;;5009593;28;20026;-65
2023/10/16 03:40:52;;;;;;;4.63;1.30;;;;;;;;;;5009374;28;20071;-65
2023/10/16 03:43:22;;;;;;;5.50;1.58;;;;;;;;;;5010156;28;20014;-67
2023/10/16 03:45:49;;;;;;;2.05;1.25;;;;;;;;;;4995927;28;20037;-66
2023/10/16 03:48:16;;;;;;;5.53;1.52;;;;;;;;;;5008194;28;20033;-65
2023/10/16 03:50:42;;;;;;;5.53;1.30;;;;;;;;;;5004137;28;20033;-65
2023/10/16 03:53:08;;;;;;;5.18;1.35;;;;;;;;;;5009966;28;20022;-66
2023/10/16 03:55:40;;;;;;;4.68;1.27;;;;;;;;;;5008907;28;20022;-64
2023/10/16 03:58:06;;;;;;;3.00;1.40;;;;;;;;;;5009416;28;20117;-66
2023/10/16 04:00:50;;;;;;;4.43;1.60;;;;;;;;;;5009448;28;20158;-66
2023/10/16 04:03:15;;;;;;;9.85;1.67;;;;;;;;;;5005392;28;20397;-66
2023/10/16 04:05:47;;;;;;;8.05;1.80;;;;;;;;;;5001275;28;20604;-66
2023/10/16 04:08:15;;;;;;;4.43;2.03;;;;;;;;;;5002162;28;20107;-67
2023/10/16 04:10:46;;;;;;;3.22;1.67;;;;;;;;;;5002588;28;20037;-62
2023/10/16 04:13:26;;;;;;;11.88;1.88;;;;;;;;;;4997726;28;20026;-63
2023/10/16 04:15:59;;;;;;;4.85;1.55;;;;;;;;;;5005270;28;20014;-64
2023/10/16 04:20:55;;;;;;;9.80;2.25;;;;;;;;;;5009188;28;20029;-66
2023/10/16 04:23:29;;;;;;;7.90;2.30;;;;;;;;;;5007510;28;20057;-63
2023/10/16 04:31:44;;;;;;;6.57;1.85;;;;;;;;;;5000033;28;20037;-66
2023/10/16 05:03:35;;;;;;;4.05;1.77;;;;;;;;;;5001586;28;20018;-64
2023/10/16 05:14:20;;;;;;;11.65;2.55;;;;;;;;;;5011801;28;20097;-67
2023/10/16 05:19:46;;;;;;;8.20;2.28;;;;;;;;;;5004486;28;20033;-66
2023/10/16 06:14:13;;;;;;;10.02;2.17;;;;;;;;;;5005070;28;20087;-64
2023/10/16 06:16:42;;;;;;;4.43;2.25;;;;;;;;;;5009804;28;20018;-63
2023/10/16 06:19:17;;;;;;;6.07;2.17;;;;;;;;;;5010594;28;20026;-65
2023/10/16 06:21:46;;;;;;;5.57;2.20;;;;;;;;;;5005612;28;20046;-66
2023/10/16 06:24:25;;;;;;;;;;;;;;;;;;5010335;28;20748;-64
2023/10/16 06:26:50;;;;;;;6.32;1.60;;;;;;;;;;5005947;28;19912;-66
2023/10/16 06:29:16;;;;;;;3.92;1.83;;;;;;;;;;5012626;28;20093;-64
2023/10/16 06:31:49;;;;;;;7.72;2.40;;;;;;;;;;5009900;28;20373;-66
2023/10/16 06:34:15;;;;;;;5.97;2.15;;;;;;;;;;5002450;28;20018;-67
2023/10/16 06:36:41;;;;;;;9.65;2.78;;;;;;;;;;5009944;28;20362;-66
2023/10/16 06:39:19;;;;;;;6.72;1.77;;;;;;;;;;5010566;28;20066;-66
2023/10/16 06:41:45;;;;;;;9.00;2.53;;;;;;;;;;5011161;28;20101;-67
2023/10/16 06:44:15;;;;;;;5.25;2.17;;;;;;;;;;5008403;28;20105;-65
2023/10/16 06:46:41;;;;;;;8.10;2.38;;;;;;;;;;4999219;28;20061;-66
2023/10/16 06:49:09;;;;;;;6.55;1.80;;;;;;;;;;5009430;28;20046;-65
2023/10/16 06:51:34;;;;;;;9.05;2.30;;;;;;;;;;5008547;28;20098;-65
2023/10/16 06:54:01;;;;;;;7.50;2.03;;;;;;;;;;5010504;28;20105;-67
2023/10/16 06:56:34;;;;;;;6.82;2.20;;;;;;;;;;5010108;28;20386;-67
2023/10/16 06:58:59;;;;;;;6.00;2.13;;;;;;;;;;5010785;28;20072;-64
2023/10/16 07:01:27;;;;;;;4.70;2.03;;;;;;;;;;5010404;28;20441;-66
2023/10/16 07:03:56;;;;;;;10.55;1.92;;;;;;;;;;4992942;28;20075;-66
2023/10/16 07:06:24;;;;;;;5.38;2.22;;;;;;;;;;5006859;28;20022;-66
2023/10/16 07:08:51;;;;;;;10.43;2.47;;;;;;;;;;5007792;28;20112;-68
2023/10/16 07:11:19;;;;;;;11.68;2.33;;;;;;;;;;5010416;28;20493;-67
2023/10/16 07:13:44;;;;;;;6.65;2.08;;;;;;;;;;5009206;28;20010;-65
2023/10/16 07:16:09;;;;;;;6.32;2.30;;;;;;;;;;5003343;28;20042;-66
2023/10/16 07:18:42;;;;;;;8.23;2.70;;;;;;;;;;5008713;28;20051;-65
2023/10/16 07:21:07;;;;;;;7.70;2.55;;;;;;;;;;5005088;28;20049;-67
2023/10/16 07:23:36;;;;;;;6.35;2.30;;;;;;;;;;4998916;28;20111;-65
2023/10/16 07:26:02;;;;;;;;;;;;;;;;;;5004748;28;20039;-62
2023/10/16 07:28:28;;;;;;;10.45;2.58;;;;;;;;;;5007522;28;20329;-66
2023/10/16 07:30:56;;;;;;;7.47;2.28;;;;;;;;;;5010018;28;20026;-63
2023/10/16 07:33:22;;;;;;;7.47;3.37;;;;;;;;;;5020311;23;20042;-66
2023/10/16 07:35:48;;;;;;;7.15;2.85;;;;;;;;;;4988958;28;20417;-67
2023/10/16 07:38:19;;;;;;;9.15;2.78;;;;;;;;;;5008043;28;20445;-66
2023/10/16 07:40:51;;;;;;;12.35;3.28;;;;;;;;;;5002502;28;20010;-66
2023/10/16 07:43:26;;;;;;;7.75;3.72;;;;;;;;;;4992152;28;20019;-67
2023/10/16 07:45:52;;;;;;;7.88;2.78;;;;;;;;;;4988310;28;20022;-69
2023/10/16 07:48:20;;;;;;;11.32;3.95;;;;;;;;;;4987528;28;20539;-65
2023/10/16 07:50:46;;;;;;;5.85;2.67;;;;;;;;;;4986120;28;20026;-67
2023/10/16 07:53:17;;;;;;;8.05;3.17;;;;;;;;;;4988401;28;20389;-69
2023/10/16 07:55:42;;;;;;;10.23;3.47;;;;;;;;;;4988025;28;20041;-68
2023/10/16 07:58:16;;;;;;;8.32;3.08;;;;;;;;;;4988441;28;20442;-68
2023/10/16 08:00:55;;;;;;;9.70;3.28;;;;;;;;;;4988082;28;20010;-68
2023/10/16 08:03:21;;;;;;;9.98;2.72;;;;;;;;;;4987526;28;20521;-66
2023/10/16 08:05:47;;;;;;;12.77;3.55;;;;;;;;;;4984004;28;20102;-68
2023/10/16 08:08:12;;;;;;;12.02;3.15;;;;;;;;;;4985911;28;20482;-68
2023/10/16 08:10:41;;;;;;;9.52;2.88;;;;;;;;;;4986852;28;20088;-68
2023/10/16 08:13:13;;;;;;;11.02;3.00;;;;;;;;;;4986267;28;20097;-68
2023/10/16 08:15:44;;;;;;;12.32;3.17;;;;;;;;;;4987483;28;20390;-69
2023/10/16 08:18:10;;;;;;;10.38;2.88;;;;;;;;;;4987966;28;20025;-67
2023/10/16 08:23:21;;;;;;;7.85;3.22;;;;;;;;;;4983872;28;20029;-67
2023/10/16 08:25:47;;;;;;;11.73;3.83;;;;;;;;;;4986980;28;20037;-68
2023/10/16 08:28:20;;;;;;;11.80;3.65;;;;;;;;;;4987269;28;20023;-66
2023/10/16 08:33:16;;;;;;;10.55;3.67;;;;;;;;;;4986523;28;20038;-66
2023/10/16 08:35:41;;;;;;;10.07;3.30;;;;;;;;;;4986502;28;20046;-67
2023/10/16 08:38:20;;;;;;;13.05;3.28;;;;;;;;;;4987492;28;20050;-65
2023/10/16 08:40:57;;;;;;;11.98;3.08;;;;;;;;;;4983292;28;20475;-66
2023/10/16 08:43:31;;;;;;;9.73;3.42;;;;;;;;;;4986836;28;20028;-67
2023/10/16 08:45:56;;;;;;;9.75;3.45;;;;;;;;;;4987011;28;20348;-65
2023/10/16 08:48:22;;;;;;;7.95;3.17;;;;;;;;;;4986688;28;20462;-66
2023/10/16 08:50:52;;;;;;;7.22;3.38;;;;;;;;;;4986248;28;20073;-67
2023/10/16 08:53:30;;;;;;;12.48;3.42;;;;;;;;;;4987445;28;20038;-67
2023/10/16 08:56:08;;;;;;;10.95;3.15;;;;;;;;;;4986871;28;20394;-67
2023/10/16 08:58:37;;;;;;;8.45;3.50;;;;;;;;;;4986694;28;20224;-68
2023/10/16 09:01:07;;;;;;;9.48;3.15;;;;;;;;;;4987172;28;20101;-68
2023/10/16 09:03:33;;;;;;;8.75;2.85;;;;;;;;;;4986274;28;20382;-67
2023/10/16 09:06:01;;;;;;;16.02;3.45;;;;;;;;;;4974447;28;20050;-68
2023/10/16 09:08:27;;;;;;;9.23;3.63;;;;;;;;;;4984015;28;20462;-66
2023/10/16 09:10:53;;;;;;;21.25;3.05;;;;;;;;;;4987204;28;20018;-67
2023/10/16 09:13:19;;;;;;;10.27;3.10;;;;;;;;;;4986802;28;20500;-68
2023/10/16 09:15:47;;;;;;;6.57;3.05;;;;;;;;;;4986623;28;20014;-66
2023/10/16 09:18:15;;;;;;;8.43;3.53;;;;;;;;;;4986590;28;20354;-68
2023/10/16 09:20:43;;;;;;;14.15;3.50;;;;;;;;;;4986694;28;20026;-69
2023/10/16 09:23:15;;;;;;;8.07;3.05;;;;;;;;;;4983451;28;20045;-70
2023/10/16 09:25:43;;;;;;;10.73;3.63;;;;;;;;;;4988684;28;20140;-68
2023/10/16 09:28:16;;;;;;;9.68;3.47;;;;;;;;;;4990241;28;20129;-67
2023/10/16 09:30:42;;;;;;;11.02;3.60;;;;;;;;;;4987934;28;20490;-67
2023/10/16 09:33:10;;;;;;;8.30;2.70;;;;;;;;;;4974176;28;20030;-66
2023/10/16 09:35:43;;;;;;;12.95;3.53;;;;;;;;;;4989749;28;20121;-68
2023/10/16 09:38:17;;;;;;;16.58;3.10;;;;;;;;;;4985467;28;20018;-65
2023/10/16 09:40:44;;;;;;;14.45;2.80;;;;;;;;;;4990945;28;20064;-68
2023/10/16 09:43:24;;;;;;;9.18;3.03;;;;;;;;;;4990219;28;20015;-66
2023/10/16 09:45:49;;;;;;;11.15;2.83;;;;;;;;;;4986718;28;20515;-68
2023/10/16 09:48:19;;;;;;;8.07;3.00;;;;;;;;;;4990506;28;20196;-67
2023/10/16 09:50:45;;;;;;;5.40;2.10;;;;;;;;;;4989583;28;20006;-65
2023/10/16 09:53:11;;;;;;;8.45;2.97;;;;;;;;;;4990555;28;20100;-69
2023/10/16 09:55:38;;;;;;;6.47;2.83;;;;;;;;;;4989235;28;20021;-69
2023/10/16 09:58:05;;;;;;;9.13;2.30;;;;;;;;;;4989872;28;20488;-66
2023/10/16 10:00:34;;;;;;;9.35;2.88;;;;;;;;;;4989938;28;20053;-66
2023/10/16 10:03:02;;;;;;;6.03;2.75;;;;;;;;;;4989468;28;20166;-69
2023/10/16 10:05:41;;;;;;;6.90;2.40;;;;;;;;;;4970637;28;20510;-66
2023/10/16 10:08:15;;;;;;;8.55;2.88;;;;;;;;;;4988943;28;20023;-67
2023/10/16 10:11:16;;;;;;;5.75;2.60;;;;;;;;;;4989588;28;20027;-68
2023/10/16 10:13:34;;;;;;;12.13;3.17;;;;;;;;;;4990216;28;20065;-66
2023/10/16 10:16:00;;;;;;;12.98;3.40;;;;;;;;;;4989238;28;20041;-65
2023/10/16 10:18:32;;;;;;;10.23;3.63;;;;;;;;;;4988682;28;20018;-68
2023/10/16 10:21:03;;;;;;;8.60;2.80;;;;;;;;;;4989869;28;20015;-68
2023/10/16 10:23:32;;;;;;;10.13;2.83;;;;;;;;;;4985186;28;20030;-68
2023/10/16 10:25:58;;;;;;;;;;;;;;;;;;4989972;28;20028;-66
2023/10/16 10:28:38;;;;;;;8.10;2.70;;;;;;;;;;4988833;28;19913;-65
2023/10/16 10:31:05;;;;;;;9.57;3.10;;;;;;;;;;4986721;28;20026;-64
2023/10/16 10:33:55;;;;;;;6.97;2.70;;;;;;;;;;4988358;28;20026;-67
2023/10/16 10:36:33;;;;;;;7.30;2.80;;;;;;;;;;4986916;28;20018;-68
2023/10/16 10:39:20;;;;;;;5.50;2.70;;;;;;;;;;4984303;28;20077;-65
2023/10/16 10:41:54;;;;;;;12.25;3.15;;;;;;;;;;4989342;28;20049;-68
2023/10/16 10:44:28;;;;;;;9.35;3.08;;;;;;;;;;4971094;28;20026;-68
2023/10/16 10:46:54;;;;;;;8.80;3.13;;;;;;;;;;4982058;28;20022;-66
2023/10/16 10:49:35;;;;;;;6.95;3.00;;;;;;;;;;4988826;28;20023;-69
2023/10/16 10:52:01;;;;;;;12.77;4.20;;;;;;;;;;4989301;28;20042;-65
2023/10/16 10:54:26;;;;;;;7.47;3.15;;;;;;;;;;4988487;28;20097;-68
2023/10/16 10:56:53;;;;;;;10.20;2.72;;;;;;;;;;4989094;28;20018;-69
2023/10/16 10:59:39;;;;;;;8.73;3.10;;;;;;;;;;4989195;28;20019;-67
2023/10/16 11:04:44;;;;;;;9.13;2.63;;;;;;;;;;4986773;28;20038;-68
2023/10/16 11:07:13;;;;;;;6.38;2.40;;;;;;;;;;4988397;28;20465;-66
2023/10/16 11:09:38;;;;;;;8.40;2.90;;;;;;;;;;4987284;28;20555;-68
2023/10/16 11:12:07;;;;;;;8.10;2.47;;;;;;;;;;4989283;28;20014;-67
2023/10/16 11:14:36;;;;;;;8.00;2.55;;;;;;;;;;4989013;28;20050;-66
2023/10/16 11:17:05;;;;;;;7.13;2.25;;;;;;;;;;4988811;28;20013;-68
2023/10/16 11:19:53;;;;;;;5.28;1.85;;;;;;;;;;4989134;28;20026;-67
2023/10/16 11:22:19;;;;;;;7.45;1.80;;;;;;;;;;4985999;28;20014;-69
2023/10/16 11:24:45;;;;;;;6.88;1.60;;;;;;;;;;4987319;28;20591;-66
2023/10/16 11:27:11;;;;;;;5.28;1.73;;;;;;;;;;4989348;28;20446;-69
2023/10/16 11:29:39;;;;;;;9.40;1.85;;;;;;;;;;4985263;28;20054;-66
2023/10/16 11:32:06;;;;;;;5.55;1.33;;;;;;;;;;4988714;28;20030;-66
2023/10/16 11:34:42;;;;;;;4.97;1.50;;;;;;;;;;4987691;28;20027;-69
2023/10/16 11:37:12;;;;;;;4.10;1.10;;;;;;;;;;4986042;28;20030;-67
2023/10/16 11:39:37;;;;;;;4.88;1.27;;;;;;;;;;4986841;28;20042;-68
2023/10/16 11:42:03;;;;;;;6.63;1.52;;;;;;;;;;4988936;28;20430;-68
2023/10/16 11:44:32;;;;;;;5.55;1.13;;;;;;;;;;4988207;28;20022;-68
2023/10/16 11:47:00;;;;;;;;;;;;;;;;;;4988233;28;20026;-67
2023/10/16 11:50:07;;;;;;;3.45;1.20;;;;;;;;;;4986375;28;20408;-68
2023/10/16 11:52:21;;;;;;;4.65;1.58;;;;;;;;;;4986386;28;20080;-69
2023/10/16 11:54:46;;;;;;;7.13;1.45;;;;;;;;;;4979444;28;20029;-68
2023/10/16 11:57:16;;;;;;;4.20;1.33;;;;;;;;;;4988327;28;20026;-68
2023/10/16 11:59:41;;;;;;;3.78;1.27;;;;;;;;;;4987637;28;20026;-70
2023/10/16 12:02:14;;;;;;;5.95;1.73;;;;;;;;;;4988197;28;20424;-70
2023/10/16 12:04:40;;;;;;;4.45;1.63;;;;;;;;;;4986365;28;20122;-69
2023/10/16 12:07:06;;;;;;;7.20;1.55;;;;;;;;;;4985822;28;20598;-71
2023/10/16 12:09:37;;;;;;;3.53;1.30;;;;;;;;;;4987012;28;20129;-67
2023/10/16 12:12:06;;;;;;;2.50;0.98;;;;;;;;;;4988289;28;20061;-64
2023/10/16 12:14:35;;;;;;;4.28;1.50;;;;;;;;;;4986755;28;20019;-68
2023/10/16 12:17:00;;;;;;;6.30;1.50;;;;;;;;;;4986948;28;20022;-70
2023/10/16 12:19:26;;;;;;;6.88;1.50;;;;;;;;;;4983960;28;20585;-70
2023/10/16 12:21:52;;;;;;;4.40;1.77;;;;;;;;;;4982831;28;20383;-68
2023/10/16 12:24:17;;;;;;;4.10;1.45;;;;;;;;;;4987320;28;20034;-69
2023/10/16 12:26:43;;;;;;;3.55;1.50;;;;;;;;;;4985442;28;20024;-65
2023/10/16 12:29:09;;;;;;;4.40;1.15;;;;;;;;;;4983412;28;20026;-70
2023/10/16 12:31:34;;;;;;;3.88;1.20;;;;;;;;;;4985767;28;20113;-70
2023/10/16 12:34:00;;;;;;;5.05;1.27;;;;;;;;;;4976126;28;20026;-67
2023/10/16 12:36:26;;;;;;;4.88;1.30;;;;;;;;;;4986958;28;20386;-66
2023/10/16 12:38:53;;;;;;;4.43;1.02;;;;;;;;;;4983303;28;20014;-69
2023/10/16 12:41:19;;;;;;;7.63;1.42;;;;;;;;;;4984016;28;20019;-69
2023/10/16 12:43:44;;;;;;;2.65;0.90;;;;;;;;;;4988449;28;20398;-68
2023/10/16 12:46:10;;;;;;;3.20;1.30;;;;;;;;;;4987108;28;20404;-69
2023/10/16 12:48:37;;;;;;;4.75;1.23;;;;;;;;;;4985463;28;20022;-69
2023/10/16 12:51:07;;;;;;;3.20;1.20;;;;;;;;;;4970159;28;20027;-67
2023/10/16 12:53:32;;;;;;;2.60;1.10;;;;;;;;;;4986905;28;20080;-67
2023/10/16 12:55:58;;;;;;;6.65;1.30;;;;;;;;;;4986486;28;20126;-66
2023/10/16 12:58:24;;;;;;;10.65;1.63;;;;;;;;;;4986689;28;20551;-69
2023/10/16 13:00:52;;;;;;;5.55;1.05;;;;;;;;;;4972955;28;20006;-69
2023/10/16 13:03:20;;;;;;;2.15;1.10;;;;;;;;;;4990828;28;20029;-66
2023/10/16 13:05:46;;;;;;;6.90;1.37;;;;;;;;;;4982828;28;20434;-67
2023/10/16 13:08:12;;;;;;;5.07;1.67;;;;;;;;;;4989503;28;20022;-70
2023/10/16 13:10:37;;;;;;;4.72;1.20;;;;;;;;;;4989037;28;20030;-67
2023/10/16 13:13:02;;;;;;;4.55;1.38;;;;;;;;;;4990775;28;20325;-67
2023/10/16 13:15:31;;;;;;;2.72;1.20;;;;;;;;;;4989582;28;20041;-68
2023/10/16 13:17:56;;;;;;;3.15;1.40;;;;;;;;;;4979649;28;20519;-67
2023/10/16 13:20:27;;;;;;;4.30;1.23;;;;;;;;;;4983047;28;20027;-67
2023/10/16 13:22:53;;;;;;;6.60;1.10;;;;;;;;;;4981340;28;20082;-66
2023/10/16 13:25:22;;;;;;;5.55;1.20;;;;;;;;;;4983067;28;20034;-68
2023/10/16 13:27:48;;;;;;;2.55;1.08;;;;;;;;;;4983283;28;20097;-66
2023/10/16 13:30:16;;;;;;;7.55;1.20;;;;;;;;;;4982809;28;20667;-68
2023/10/16 13:32:42;;;;;;;4.50;1.40;;;;;;;;;;5000850;23;20073;-66
2023/10/16 13:35:12;;;;;;;2.42;1.00;;;;;;;;;;4996429;28;20029;-66
2023/10/16 13:37:38;;;;;;;3.25;1.10;;;;;;;;;;5000062;28;20037;-68
2023/10/16 13:40:04;;;;;;;2.80;0.98;;;;;;;;;;4996504;28;20025;-67
2023/10/16 13:42:30;;;;;;;4.38;1.30;;;;;;;;;;4994566;28;20333;-64
2023/10/16 13:44:55;;;;;;;2.40;1.17;;;;;;;;;;4988994;28;20038;-66
2023/10/16 13:47:20;;;;;;;3.97;1.40;;;;;;;;;;4991240;28;20018;-66
2023/10/16 13:49:47;;;;;;;3.05;1.30;;;;;;;;;;4987885;28;20129;-65
2023/10/16 13:52:14;;;;;;;3.88;1.38;;;;;;;;;;4990984;28;20014;-66
2023/10/16 13:54:40;;;;;;;2.30;1.10;;;;;;;;;;4973716;28;20108;-65
2023/10/16 13:57:07;;;;;;;19.42;2.28;;;;;;;;;;4992271;28;20625;-66
2023/10/16 13:59:33;;;;;;;3.40;1.42;;;;;;;;;;4991602;28;20018;-69
2023/10/16 14:02:01;;;;;;;2.63;1.10;;;;;;;;;;4991011;28;20010;-67
2023/10/16 14:04:32;;;;;;;4.70;1.30;;;;;;;;;;4991130;28;20154;-66
2023/10/16 14:06:58;;;;;;;4.95;1.48;;;;;;;;;;4984080;28;20133;-65
2023/10/16 14:09:32;;;;;;;5.78;1.42;;;;;;;;;;4991067;28;20019;-66
2023/10/16 14:11:58;;;;;;;3.90;1.50;;;;;;;;;;4992819;28;20037;-66
2023/10/16 14:14:24;;;;;;;5.22;1.60;;;;;;;;;;4990561;28;20030;-65
2023/10/16 14:16:53;;;;;;;5.75;1.70;;;;;;;;;;4991996;28;20561;-66
2023/10/16 14:19:22;;;;;;;4.78;2.03;;;;;;;;;;4991517;28;20537;-65
2023/10/16 14:21:51;;;;;;;3.63;1.33;;;;;;;;;;4991625;28;20517;-64
2023/10/16 14:24:17;;;;;;;;;;;;;;;;;;4990435;28;20073;-67
2023/10/16 14:26:43;;;;;;;4.88;1.17;;;;;;;;;;4973355;28;19918;-67
2023/10/16 14:29:10;;;;;;;4.43;1.73;;;;;;;;;;4990779;28;20038;-65
2023/10/16 14:31:36;;;;;;;5.93;1.60;;;;;;;;;;4989843;28;20057;-65
2023/10/16 14:34:05;;;;;;;4.50;1.20;;;;;;;;;;4990826;28;20022;-65
2023/10/16 14:36:31;;;;;;;6.80;1.60;;;;;;;;;;4989585;28;20026;-63
2023/10/16 14:38:56;;;;;;;6.78;2.03;;;;;;;;;;4989098;28;20093;-65
2023/10/16 14:41:23;;;;;;;3.78;1.50;;;;;;;;;;4986633;28;20088;-65
2023/10/16 14:43:50;;;;;;;3.95;1.60;;;;;;;;;;4985654;28;20058;-64
2023/10/16 14:46:16;;;;;;;3.25;1.27;;;;;;;;;;4984531;28;20076;-66
2023/10/16 14:48:45;;;;;;;2.20;1.02;;;;;;;;;;4990221;28;20022;-66
2023/10/16 14:51:13;;;;;;;7.40;1.70;;;;;;;;;;4988564;28;20028;-64
2023/10/16 14:53:39;;;;;;;3.83;1.23;;;;;;;;;;4985424;28;20716;-63
2023/10/16 14:56:06;;;;;;;3.72;1.25;;;;;;;;;;4985823;28;20134;-67
2023/10/16 14:58:31;;;;;;;6.72;1.77;;;;;;;;;;4987092;28;20049;-63
2023/10/16 15:00:57;;;;;;;4.03;1.77;;;;;;;;;;4985359;28;20031;-66
2023/10/16 15:03:22;;;;;;;1.77;0.98;;;;;;;;;;4989567;28;20486;-66
2023/10/16 15:05:49;;;;;;;3.03;1.27;;;;;;;;;;4983319;28;20547;-65
2023/10/16 15:08:14;;;;;;;2.90;1.65;;;;;;;;;;4990421;28;20014;-66
2023/10/16 15:10:43;;;;;;;3.05;1.48;;;;;;;;;;4989834;28;20398;-65
2023/10/16 15:13:12;;;;;;;4.15;1.55;;;;;;;;;;4989577;28;20046;-64
2023/10/16 15:15:37;;;;;;;3.10;1.33;;;;;;;;;;4985966;28;20057;-65
2023/10/16 15:18:05;;;;;;;5.40;1.48;;;;;;;;;;4989967;28;20018;-65
2023/10/16 15:20:31;;;;;;;5.35;1.55;;;;;;;;;;4989889;28;20436;-65
2023/10/16 15:22:56;;;;;;;7.53;2.40;;;;;;;;;;4987734;28;20501;-65
2023/10/16 15:25:22;;;;;;;7.90;2.53;;;;;;;;;;4989253;28;20445;-64
2023/10/16 15:27:47;;;;;;;6.05;2.95;;;;;;;;;;4989552;28;20109;-66
2023/10/16 15:30:12;;;;;;;2.63;1.50;;;;;;;;;;4990631;28;20105;-66
2023/10/16 15:32:42;;;;;;;3.55;1.50;;;;;;;;;;4989838;28;20026;-66
2023/10/16 15:35:08;;;;;;;3.00;1.50;;;;;;;;;;4988565;28;20014;-65
2023/10/16 15:37:34;;;;;;;3.53;1.60;;;;;;;;;;4989610;28;20101;-65
2023/10/16 15:40:00;;;;;;;4.38;1.92;;;;;;;;;;4990045;28;20089;-64
2023/10/16 15:42:25;;;;;;;3.47;1.40;;;;;;;;;;4988706;28;20025;-66
2023/10/16 15:44:50;;;;;;;3.17;1.48;;;;;;;;;;4988961;28;20025;-66
2023/10/16 15:47:16;;;;;;;9.35;1.80;;;;;;;;;;4990781;28;20029;-65
2023/10/16 15:49:41;;;;;;;4.65;1.52;;;;;;;;;;4983672;28;20482;-68
2023/10/16 15:52:06;;;;;;;4.25;1.58;;;;;;;;;;4990328;28;20034;-67
2023/10/16 15:54:32;;;;;;;2.75;1.38;;;;;;;;;;4989244;28;20026;-65
2023/10/16 15:56:57;;;;;;;6.57;1.75;;;;;;;;;;4989247;28;20014;-64
2023/10/16 15:59:22;;;;;;;3.65;1.67;;;;;;;;;;4989492;28;20113;-66
2023/10/16 16:01:48;;;;;;;8.85;4.72;;;;;;;;;;4989615;28;20018;-65
2023/10/16 16:04:18;;;;;;;3.20;1.80;;;;;;;;;;4989150;28;20022;-67
2023/10/16 16:06:44;;;;;;;6.38;2.83;;;;;;;;;;4987775;28;20041;-66
2023/10/16 16:09:13;;;;;;;9.80;2.10;;;;;;;;;;4989142;28;20030;-62
2023/10/16 16:11:44;;;;;;;7.05;1.90;;;;;;;;;;4989409;28;20030;-65
2023/10/16 16:14:12;;;;;;;5.95;1.77;;;;;;;;;;4988781;28;20102;-64
2023/10/16 16:16:37;;;;;;;5.00;1.60;;;;;;;;;;4987455;28;20136;-65
2023/10/16 16:19:05;;;;;;;3.55;1.60;;;;;;;;;;4989253;28;20093;-62
2023/10/16 16:21:32;;;;;;;3.17;1.40;;;;;;;;;;4988916;28;20468;-64
2023/10/16 16:23:58;;;;;;;3.38;1.65;;;;;;;;;;4985699;28;20029;-66
2023/10/16 16:26:24;;;;;;;3.95;1.67;;;;;;;;;;4988225;28;20896;-66
2023/10/16 16:28:50;;;;;;;5.55;1.63;;;;;;;;;;4988628;28;20033;-66
2023/10/16 16:31:15;;;;;;;7.43;1.70;;;;;;;;;;4988023;28;20033;-66
2023/10/16 16:33:41;;;;;;;4.50;1.55;;;;;;;;;;4987094;28;20038;-63
2023/10/16 16:36:09;;;;;;;2.47;1.40;;;;;;;;;;4988163;28;20474;-66
2023/10/16 16:38:35;;;;;;;2.70;1.50;;;;;;;;;;4987781;28;20152;-67
2023/10/16 16:41:00;;;;;;;4.03;1.40;;;;;;;;;;4989590;28;20485;-66